createdAt,value
2022-09-07T00:00:06.436Z,0.90
2022-09-07T00:02:33.407Z,0.60
2022-09-07T00:05:00.263Z,0.73
2022-09-07T00:07:27.052Z,0.90
2022-09-07T00:09:53.877Z,0.90
2022-09-07T00:14:48.025Z,0.80
2022-09-07T00:17:14.938Z,0.85
2022-09-07T00:19:42.008Z,0.70
2022-09-07T00:22:08.991Z,0.80
2022-09-07T00:24:35.982Z,0.85
2022-09-07T00:27:02.791Z,0.63
2022-09-07T00:29:29.610Z,1.00
2022-09-07T00:31:56.495Z,0.75
2022-09-07T00:34:23.439Z,0.90
2022-09-07T00:36:50.264Z,0.80
2022-09-07T00:39:17.100Z,0.70
2022-09-07T00:41:43.889Z,0.90
2022-09-07T00:48:02.801Z,0.80
2022-09-07T00:50:37.586Z,0.73
2022-09-07T00:53:14.489Z,0.70
2022-09-07T00:55:43.140Z,0.90
2022-09-07T00:58:10.683Z,0.85
2022-09-07T01:00:37.521Z,0.90
2022-09-07T01:03:05.472Z,0.82
2022-09-07T01:05:41.488Z,0.80
2022-09-07T01:08:09.411Z,0.82
2022-09-07T01:10:36.922Z,0.68
2022-09-07T01:13:03.813Z,0.90
2022-09-07T01:19:03.760Z,0.73
2022-09-07T01:24:40.623Z,1.10
2022-09-07T01:27:33.485Z,0.90
2022-09-07T01:30:18.207Z,0.73
2022-09-07T01:39:04.427Z,1.00
2022-09-07T01:44:17.838Z,1.05
2022-09-07T01:46:54.804Z,1.02
2022-09-07T01:49:25.395Z,0.80
2022-09-07T01:51:57.946Z,0.50
2022-09-07T01:54:31.785Z,0.90
2022-09-07T02:02:21.699Z,0.65
2022-09-07T02:07:40.501Z,0.80
2022-09-07T02:10:14.517Z,0.80
2022-09-07T02:12:44.704Z,0.90
2022-09-07T02:15:15.742Z,0.80
2022-09-07T02:17:44.661Z,0.80
2022-09-07T02:20:29.372Z,0.70
2022-09-07T02:22:59.814Z,0.63
2022-09-07T02:25:29.756Z,0.73
2022-09-07T02:28:13.483Z,0.63
2022-09-07T02:30:40.504Z,0.88
2022-09-07T02:33:07.386Z,0.75
2022-09-07T02:35:34.847Z,0.80
2022-09-07T02:38:04.324Z,0.98
2022-09-07T02:43:04.258Z,1.00
2022-09-07T02:48:32.641Z,0.75
2022-09-07T02:51:15.122Z,0.82
2022-09-07T02:57:23.237Z,0.73
2022-09-07T03:00:11.226Z,0.98
2022-09-07T03:02:58.475Z,0.88
2022-09-07T03:05:39.495Z,0.63
2022-09-07T03:08:12.588Z,0.90
2022-09-07T03:10:40.086Z,0.90
2022-09-07T03:15:34.139Z,0.60
2022-09-07T03:18:00.997Z,0.90
2022-09-07T03:20:27.825Z,0.90
2022-09-07T03:22:54.652Z,0.88
2022-09-07T03:25:22.795Z,0.90
2022-09-07T03:27:49.638Z,0.80
2022-09-07T03:30:16.611Z,0.75
2022-09-07T03:32:43.516Z,0.60
2022-09-07T03:35:10.595Z,0.90
2022-09-07T03:37:38.351Z,0.80
2022-09-07T03:40:07.765Z,1.00
2022-09-07T03:45:01.805Z,0.90
2022-09-07T03:49:56.114Z,0.80
2022-09-07T03:52:23.027Z,0.82
2022-09-07T03:54:49.820Z,0.82
2022-09-07T03:57:16.847Z,0.60
2022-09-07T03:59:43.635Z,0.90
2022-09-07T04:02:10.522Z,0.73
2022-09-07T04:04:37.377Z,0.80
2022-09-07T04:07:04.292Z,0.80
2022-09-07T04:09:31.188Z,1.52
2022-09-07T04:11:58.087Z,0.75
2022-09-07T04:14:24.925Z,0.70
2022-09-07T04:16:51.876Z,0.70
2022-09-07T04:21:47.481Z,0.93
2022-09-07T04:24:18.038Z,0.85
2022-09-07T04:26:45.253Z,0.70
2022-09-07T04:29:12.913Z,0.70
2022-09-07T04:31:40.073Z,0.93
2022-09-07T04:34:07.348Z,1.10
2022-09-07T04:36:34.893Z,0.80
2022-09-07T04:39:03.910Z,0.82
2022-09-07T04:41:32.484Z,0.90
2022-09-07T04:44:01.503Z,0.80
2022-09-07T04:46:37.430Z,0.85
2022-09-07T04:49:09.462Z,0.85
2022-09-07T04:51:38.000Z,0.70
2022-09-07T04:54:05.578Z,0.83
2022-09-07T04:56:32.781Z,0.90
2022-09-07T04:59:01.171Z,0.60
2022-09-07T05:01:28.391Z,0.93
2022-09-07T05:03:55.618Z,0.93
2022-09-07T05:06:23.342Z,3.22
2022-09-07T05:08:52.098Z,4.80
2022-09-07T05:11:23.818Z,3.78
2022-09-07T05:13:53.313Z,2.83
2022-09-07T05:16:23.253Z,2.67
2022-09-07T05:18:51.457Z,3.00
2022-09-07T05:23:55.200Z,2.63
2022-09-07T05:26:24.094Z,2.13
2022-09-07T05:28:51.313Z,2.20
2022-09-07T05:31:20.936Z,2.03
2022-09-07T05:36:39.124Z,1.92
2022-09-07T05:39:06.475Z,2.00
2022-09-07T05:41:33.432Z,3.13
2022-09-07T05:46:47.197Z,3.80
2022-09-07T05:49:14.028Z,4.18
2022-09-07T05:51:41.198Z,3.40
2022-09-07T05:54:08.353Z,3.45
2022-09-07T05:56:36.155Z,2.90
2022-09-07T05:59:03.694Z,2.58
2022-09-07T06:01:30.842Z,2.83
2022-09-07T06:03:57.972Z,2.92
2022-09-07T06:06:24.809Z,3.15
2022-09-07T06:08:53.171Z,2.47
2022-09-07T06:11:22.739Z,2.85
2022-09-07T06:13:49.871Z,2.72
2022-09-07T06:16:18.573Z,2.58
2022-09-07T06:18:47.267Z,3.15
2022-09-07T06:21:19.671Z,2.60
2022-09-07T06:23:47.440Z,2.78
2022-09-07T06:26:15.204Z,2.67
2022-09-07T06:28:49.639Z,2.33
2022-09-07T06:31:22.892Z,2.28
2022-09-07T06:33:51.042Z,2.40
2022-09-07T06:36:22.952Z,2.05
2022-09-07T06:38:51.241Z,2.60
2022-09-07T06:44:14.156Z,2.45
2022-09-07T06:49:27.757Z,2.42
2022-09-07T06:51:54.565Z,2.10
2022-09-07T06:57:09.324Z,1.90
2022-09-07T06:59:37.442Z,1.98
2022-09-07T07:02:05.311Z,2.20
2022-09-07T07:04:37.777Z,2.05
2022-09-07T07:09:39.645Z,2.25
2022-09-07T07:12:06.669Z,2.17
2022-09-07T07:14:35.025Z,2.15
2022-09-07T07:24:44.571Z,1.88
2022-09-07T07:27:11.353Z,1.67
2022-09-07T07:29:38.165Z,2.10
2022-09-07T07:32:05.245Z,2.03
2022-09-07T07:34:32.089Z,2.17
2022-09-07T07:36:58.917Z,2.30
2022-09-07T07:42:12.482Z,2.47
2022-09-07T07:44:39.356Z,2.10
2022-09-07T07:47:06.271Z,2.67
2022-09-07T07:49:33.142Z,2.92
2022-09-07T07:54:46.909Z,2.67
2022-09-07T07:57:13.932Z,2.90
2022-09-07T07:59:40.714Z,2.75
2022-09-07T08:02:10.254Z,2.78
2022-09-07T08:04:37.116Z,3.20
2022-09-07T08:07:10.320Z,2.60
2022-09-07T08:09:40.413Z,2.70
2022-09-07T08:12:07.708Z,3.03
2022-09-07T08:14:36.604Z,2.63
2022-09-07T08:17:03.429Z,2.83
2022-09-07T08:19:30.180Z,3.03
2022-09-07T08:21:56.929Z,3.05
2022-09-07T08:24:23.722Z,3.70
2022-09-07T08:26:50.572Z,3.17
2022-09-07T08:29:17.342Z,3.00
2022-09-07T08:31:44.679Z,2.95
2022-09-07T08:34:11.870Z,3.50
2022-09-07T08:36:38.672Z,2.90
2022-09-07T08:39:05.495Z,2.88
2022-09-07T08:41:47.776Z,3.75
2022-09-07T08:44:33.934Z,2.85
2022-09-07T08:47:08.236Z,2.95
2022-09-07T08:49:47.176Z,2.85
2022-09-07T08:52:25.831Z,2.80
2022-09-07T08:55:00.991Z,2.88
2022-09-07T08:57:31.488Z,2.80
2022-09-07T09:00:07.299Z,2.55
2022-09-07T09:02:40.223Z,2.58
2022-09-07T09:05:27.748Z,2.60
2022-09-07T09:08:11.906Z,2.75
2022-09-07T09:16:28.246Z,2.70
2022-09-07T09:22:09.624Z,2.55
2022-09-07T09:27:09.863Z,2.17
2022-09-07T09:29:36.642Z,2.38
2022-09-07T09:32:39.879Z,2.20
2022-09-07T09:35:32.610Z,2.50
2022-09-07T09:37:59.406Z,2.20
2022-09-07T09:40:29.698Z,2.20
2022-09-07T09:43:07.591Z,2.28
2022-09-07T09:48:34.441Z,1.80
2022-09-07T09:56:47.348Z,1.90
2022-09-07T10:08:15.586Z,1.38
2022-09-07T10:11:19.848Z,1.85
2022-09-07T10:13:57.827Z,10.80
2022-09-07T10:16:41.551Z,39.17
2022-09-07T10:19:37.657Z,31.70
2022-09-07T10:22:26.619Z,26.05
2022-09-07T10:24:53.462Z,19.52
2022-09-07T10:30:01.163Z,8.90
2022-09-07T10:32:56.117Z,6.35
2022-09-07T10:35:22.832Z,6.32
2022-09-07T10:46:59.888Z,2.60
2022-09-07T10:49:39.455Z,2.58
2022-09-07T10:52:12.453Z,2.47
2022-09-07T10:54:57.254Z,2.50
2022-09-07T10:57:49.263Z,1.92
2022-09-07T11:06:06.733Z,1.73
2022-09-07T11:12:27.443Z,1.67
2022-09-07T11:15:09.532Z,1.63
2022-09-07T11:18:06.102Z,2.05
2022-09-07T11:20:45.266Z,1.65
2022-09-07T11:23:16.174Z,1.45
2022-09-07T11:25:53.968Z,1.40
2022-09-07T11:28:27.555Z,1.70
2022-09-07T11:31:00.944Z,1.70
2022-09-07T11:33:33.873Z,1.88
2022-09-07T11:36:13.660Z,1.92
2022-09-07T11:38:42.114Z,2.10
2022-09-07T11:41:27.897Z,1.57
2022-09-07T11:44:13.511Z,1.48
2022-09-07T11:46:47.950Z,1.90
2022-09-07T11:49:21.478Z,1.83
2022-09-07T11:51:58.080Z,1.88
2022-09-07T11:57:15.114Z,1.70
2022-09-07T12:00:03.542Z,2.22
2022-09-07T12:05:59.370Z,2.10
2022-09-07T12:18:12.084Z,1.80
2022-09-07T12:20:48.904Z,2.25
2022-09-07T12:23:15.711Z,2.00
2022-09-07T12:25:48.222Z,1.55
2022-09-07T12:28:24.002Z,2.08
2022-09-07T12:31:02.222Z,1.83
2022-09-07T12:33:30.648Z,2.10
2022-09-07T12:35:59.059Z,2.10
2022-09-07T12:41:00.472Z,2.47
2022-09-07T12:43:55.074Z,2.13
2022-09-07T12:55:29.672Z,2.17
2022-09-07T13:10:03.934Z,2.00
2022-09-07T13:23:43.171Z,1.50
2022-09-07T13:26:12.936Z,2.15
2022-09-07T13:28:52.897Z,2.28
2022-09-07T13:31:50.832Z,2.38
2022-09-07T13:34:33.577Z,1.92
2022-09-07T13:39:38.082Z,1.75
2022-09-07T13:44:34.545Z,1.70
2022-09-07T13:50:23.699Z,1.48
2022-09-07T13:56:05.311Z,1.45
2022-09-07T13:58:38.166Z,1.60
2022-09-07T14:01:12.804Z,1.85
2022-09-07T14:03:59.448Z,1.50
2022-09-07T14:06:31.631Z,1.63
2022-09-07T14:09:04.641Z,1.60
2022-09-07T14:11:45.982Z,1.30
2022-09-07T14:14:13.063Z,1.35
2022-09-07T14:16:41.407Z,1.40
2022-09-07T14:19:39.293Z,1.40
2022-09-07T14:22:28.059Z,1.23
2022-09-07T14:24:56.593Z,1.67
2022-09-07T14:27:35.013Z,1.87
2022-09-07T14:30:29.806Z,1.80
2022-09-07T14:33:00.684Z,1.50
2022-09-07T14:35:32.005Z,1.85
2022-09-07T14:41:14.715Z,1.90
2022-09-07T14:43:56.156Z,1.90
2022-09-07T14:49:05.090Z,1.63
2022-09-07T14:51:36.533Z,1.60
2022-09-07T14:56:40.353Z,1.58
2022-09-07T14:59:39.721Z,1.85
2022-09-07T15:02:18.894Z,2.00
2022-09-07T15:07:40.882Z,2.10
2022-09-07T15:13:22.155Z,1.73
2022-09-07T15:15:57.750Z,1.92
2022-09-07T15:18:54.374Z,2.17
2022-09-07T15:24:01.245Z,1.60
2022-09-07T15:27:03.011Z,1.95
2022-09-07T15:29:30.896Z,1.75
2022-09-07T15:32:03.916Z,2.00
2022-09-07T15:34:32.295Z,2.17
2022-09-07T15:37:00.286Z,2.10
2022-09-07T15:39:29.940Z,2.22
2022-09-07T15:49:49.192Z,2.35
2022-09-07T15:52:17.494Z,2.28
2022-09-07T15:54:44.307Z,2.47
2022-09-07T15:59:58.254Z,2.08
2022-09-07T16:05:11.947Z,1.77
2022-09-07T16:10:27.359Z,1.70
2022-09-07T16:13:02.744Z,1.80
2022-09-07T16:15:45.223Z,2.15
2022-09-07T16:18:16.549Z,2.17
2022-09-07T16:20:43.953Z,2.40
2022-09-07T16:23:13.662Z,2.92
2022-09-07T16:25:42.303Z,3.15
2022-09-07T16:28:09.381Z,2.88
2022-09-07T16:30:39.404Z,3.55
2022-09-07T16:35:33.436Z,18.80
2022-09-07T16:40:46.965Z,15.10
2022-09-07T16:43:13.733Z,12.27
2022-09-07T16:48:27.177Z,8.10
2022-09-07T16:51:01.109Z,8.18
2022-09-07T16:53:33.569Z,7.30
2022-09-07T16:56:04.768Z,6.78
2022-09-07T16:58:43.128Z,8.05
2022-09-07T17:01:12.246Z,6.60
2022-09-07T17:03:39.811Z,5.75
2022-09-07T17:06:08.959Z,6.15
2022-09-07T17:08:36.995Z,5.45
2022-09-07T17:11:06.463Z,4.95
2022-09-07T17:13:34.458Z,5.10
2022-09-07T17:16:09.999Z,4.55
2022-09-07T17:21:24.230Z,4.53
2022-09-07T17:23:55.678Z,4.43
2022-09-07T17:26:26.627Z,4.97
2022-09-07T17:28:55.458Z,4.97
2022-09-07T17:34:13.389Z,4.75
2022-09-07T17:36:43.300Z,4.15
2022-09-07T17:39:14.870Z,3.75
2022-09-07T17:41:43.484Z,3.65
2022-09-07T17:44:10.323Z,3.90
2022-09-07T17:46:37.067Z,3.65
2022-09-07T17:49:04.097Z,3.80
2022-09-07T17:51:32.440Z,3.47
2022-09-07T17:54:09.704Z,3.40
2022-09-07T17:56:37.390Z,3.00
2022-09-07T18:01:51.173Z,3.20
2022-09-07T18:04:17.970Z,2.90
2022-09-07T18:06:44.828Z,3.30
2022-09-07T18:09:11.810Z,2.95
2022-09-07T18:11:47.550Z,2.92
2022-09-07T18:14:15.507Z,2.92
2022-09-07T18:16:44.322Z,3.10
2022-09-07T18:19:12.071Z,2.80
2022-09-07T18:21:41.189Z,2.47
2022-09-07T18:24:13.998Z,2.55
2022-09-07T18:26:41.357Z,2.80
2022-09-07T18:29:25.934Z,2.60
2022-09-07T18:31:54.470Z,2.03
2022-09-07T18:34:23.266Z,2.30
2022-09-07T18:36:50.610Z,2.25
2022-09-07T18:39:17.381Z,2.17
2022-09-07T18:41:44.143Z,1.77
2022-09-07T18:46:57.743Z,2.30
2022-09-07T18:49:24.996Z,2.00
2022-09-07T18:57:08.141Z,1.95
2022-09-07T18:59:34.924Z,2.38
2022-09-07T19:02:04.864Z,1.70
2022-09-07T19:07:20.929Z,2.00
2022-09-07T19:09:48.505Z,1.70
2022-09-07T19:12:15.627Z,1.77
2022-09-07T19:14:42.656Z,2.00
2022-09-07T19:17:11.732Z,1.85
2022-09-07T19:19:39.634Z,1.88
2022-09-07T19:22:06.494Z,1.90
2022-09-07T19:24:33.652Z,1.45
2022-09-07T19:27:01.148Z,2.08
2022-09-07T19:29:28.590Z,1.90
2022-09-07T19:32:04.241Z,3.40
2022-09-07T19:34:39.094Z,4.07
2022-09-07T19:37:07.825Z,4.70
2022-09-07T19:42:04.165Z,3.78
2022-09-07T19:44:31.281Z,3.55
2022-09-07T19:46:58.210Z,3.38
2022-09-07T19:49:25.015Z,3.58
2022-09-07T19:51:52.081Z,2.83
2022-09-07T19:54:18.976Z,2.95
2022-09-07T19:56:46.057Z,3.13
2022-09-07T19:59:13.485Z,2.58
2022-09-07T20:01:43.708Z,2.70
2022-09-07T20:04:15.989Z,2.60
2022-09-07T20:06:44.297Z,2.78
2022-09-07T20:09:11.172Z,6.28
2022-09-07T20:11:38.435Z,4.63
2022-09-07T20:14:07.575Z,2.90
2022-09-07T20:16:38.388Z,2.80
2022-09-07T20:19:09.298Z,2.70
2022-09-07T20:21:36.829Z,3.00
2022-09-07T20:24:04.119Z,2.70
2022-09-07T20:26:32.278Z,2.80
2022-09-07T20:29:23.378Z,2.60
2022-09-07T20:31:46.725Z,2.65
2022-09-07T20:34:13.735Z,2.42
2022-09-07T20:36:40.545Z,2.55
2022-09-07T20:39:07.538Z,2.70
2022-09-07T20:44:03.691Z,2.50
2022-09-07T20:46:30.948Z,1.97
2022-09-07T20:48:57.882Z,2.40
2022-09-07T20:51:24.781Z,2.25
2022-09-07T20:53:51.551Z,2.22
2022-09-07T20:58:57.336Z,5.07
2022-09-07T21:01:24.309Z,5.32
2022-09-07T21:03:53.830Z,4.78
2022-09-07T21:06:21.845Z,4.15
2022-09-07T21:08:49.536Z,4.40
2022-09-07T21:11:22.099Z,3.92
2022-09-07T21:13:55.172Z,3.90
2022-09-07T21:16:22.033Z,5.07
2022-09-07T21:18:53.724Z,5.88
2022-09-07T21:21:20.937Z,4.80
2022-09-07T21:23:47.842Z,4.80
2022-09-07T21:26:15.071Z,4.65
2022-09-07T21:28:41.913Z,4.45
2022-09-07T21:31:09.572Z,4.10
2022-09-07T21:33:37.579Z,4.18
2022-09-07T21:36:12.743Z,3.92
2022-09-07T21:38:40.757Z,3.78
2022-09-07T21:41:13.681Z,3.65
2022-09-07T21:43:40.959Z,3.50
2022-09-07T21:48:45.759Z,3.88
2022-09-07T21:51:13.540Z,4.03
2022-09-07T21:53:40.556Z,3.65
2022-09-07T21:56:12.174Z,3.47
2022-09-07T21:58:40.005Z,3.33
2022-09-07T22:03:45.755Z,3.47
2022-09-07T22:06:12.989Z,3.05
2022-09-07T22:08:41.359Z,2.67
2022-09-07T22:11:13.377Z,2.83
2022-09-07T22:13:40.673Z,2.88
2022-09-07T22:16:07.618Z,2.85
2022-09-07T22:18:37.198Z,2.50
2022-09-07T22:21:12.992Z,3.05
2022-09-07T22:23:42.978Z,2.85
2022-09-07T22:26:09.848Z,2.30
2022-09-07T22:28:37.100Z,2.58
2022-09-07T22:33:44.770Z,2.15
2022-09-07T22:36:21.568Z,2.53
2022-09-07T22:38:52.802Z,2.60
2022-09-07T22:41:25.671Z,2.40
2022-09-07T22:43:52.444Z,2.00
2022-09-07T22:46:20.953Z,2.10
2022-09-07T22:48:48.113Z,2.27
2022-09-07T22:51:15.407Z,2.20
2022-09-07T22:53:43.524Z,2.00
2022-09-07T22:56:20.422Z,2.20
2022-09-07T22:58:53.226Z,1.88
2022-09-07T23:01:21.886Z,2.30
2022-09-07T23:03:49.219Z,1.92
2022-09-07T23:09:08.333Z,1.90
2022-09-07T23:11:35.119Z,2.03
2022-09-07T23:14:03.938Z,1.70
2022-09-07T23:16:31.074Z,2.00
2022-09-07T23:18:59.006Z,1.83
2022-09-07T23:21:27.192Z,1.80
2022-09-07T23:23:55.656Z,1.73
2022-09-07T23:26:23.692Z,1.58
2022-09-07T23:29:00.771Z,1.52
2022-09-07T23:31:28.839Z,2.05
2022-09-07T23:33:59.822Z,1.48
2022-09-07T23:36:26.792Z,1.45
2022-09-07T23:38:56.109Z,1.58
2022-09-07T23:41:24.570Z,1.77
2022-09-07T23:43:54.660Z,1.23
2022-09-07T23:46:21.659Z,1.00
2022-09-07T23:48:48.968Z,1.50
2022-09-07T23:51:19.890Z,1.38
2022-09-07T23:53:49.815Z,1.30
2022-09-07T23:56:16.586Z,1.30
2022-09-07T23:58:43.346Z,1.17
